Kawkawlin, Michigan
Current Conditions -  °F | °C
As of 8:53 PM on Wednesday 22 Oct 2014 (Local Time) from KMBS Reporting Station
Overcast Overcast  
Wind Chill: 43°   Ceiling: 2200
Heat Index: 46°   Visibility: 10mi
Dew Point: 37°   Wind: 6mph
Humidity: 71%   Direction: 80°E
Pressure: 30.32"   Gusts: NA
Location:  43.65°N, 83.94°W
Report Text: KMBS 230053Z 08005KT 10SM OVC022 08/03 A3032 RMK AO2 SLP272 T00780028
Loading
Personal Weather Stations






























Interactive Weather Map
Tropical Storm Tracking
New forecast layout! Learn more

10-Day Weather Forecast

Advertisements
Track Severe Weather on mobile